Integrity — WDF4881 — position and weather

sailwx.info

Track history (hours):
 
Tides and Currents Weather Stations Pressure Air Temp Water Temp Dewpoint Dewpoint Depression Visibility Wind Speed Wind Dir Waves Ship Positions

Integrity

Owner: Canal Barge Company, Inc., Belle Chasse, LA. More information available from US FCC via Universal Licensing System and Coast Guard Vessel Documentation Center.

Last reported at 2017-May-03 09:47 UTC. Time now 2017-May-29 18:54 UTC.
Position N 29°34' W 090°31'.
Warning: this ship's position is 26 days out of date.

Length 19 m; draft 2.8 m.

Type: Towing. MMSI: 367456830.

Date/timePositionNaut miles runAvg speedWind from/ knotsBaromVisibWave heightAir tempDewpointWater temp
2017-May-03 09:47N 29°34' W 090°31'2 5.0
2017-May-03 09:25N 29°34' W 090°33'2 4.8
2017-May-03 08:59N 29°35' W 090°35'2 4.3
2017-May-03 08:30N 29°35' W 090°38'2 4.2
2017-May-03 08:01N 29°36' W 090°40'2 3.8
2017-May-03 07:31N 29°37' W 090°42'1 2.6
2017-May-03 07:00N 29°36' W 090°43'2 3.2
2017-May-03 06:31N 29°34' W 090°43'2 3.8
2017-May-03 06:00N 29°33' W 090°45'0 0.5
2017-May-03 05:31N 29°33' W 090°45'0 0.2
2017-May-03 05:01N 29°33' W 090°45'1 1.7
2017-May-03 04:30N 29°32' W 090°46'2 3.3
2017-May-03 04:00N 29°32' W 090°48'2 4.1
2017-May-03 03:31N 29°32' W 090°50'2 3.9
2017-May-03 03:01N 29°32' W 090°52'2 3.6
2017-May-03 02:24N 29°33' W 090°54'2 3.7
2017-May-03 01:59N 29°34' W 090°56'49 3.2
2017-May-02 10:50N 29°49' W 091°50'1 3.8
2017-May-02 10:29N 29°50' W 091°50'2 4.5
2017-May-02 10:00N 29°51' W 091°53'2 4.9
2017-May-02 09:30N 29°51' W 091°56'2 4.6
2017-May-02 09:00N 29°50' W 091°58'2 4.4
2017-May-02 08:31N 29°50' W 092°01'2 4.5
2017-May-02 08:01N 29°49' W 092°03'2 4.1
2017-May-02 07:30N 29°48' W 092°05'2 3.9
2017-May-02 07:01N 29°47' W 092°07'2 4.0
2017-May-02 06:30N 29°47' W 092°10'2 4.0
2017-May-02 06:01N 29°47' W 092°12'1 1.1
2017-May-02 05:30N 29°47' W 092°13'1 2.0
2017-May-02 05:00N 29°48' W 092°14'0 0.3
2017-May-02 04:30N 29°48' W 092°14'0 0.0
2017-May-02 04:00N 29°48' W 092°14'0 0.0
2017-May-02 03:30N 29°48' W 092°14'0 0.9
2017-May-02 03:00N 29°48' W 092°14'1 1.9
2017-May-02 02:31N 29°48' W 092°15'2 3.7
2017-May-02 02:01N 29°49' W 092°17'2 4.2
2017-May-02 01:30N 29°50' W 092°19'2 4.7
2017-May-02 01:01N 29°51' W 092°22'2 5.0
2017-May-02 00:31N 29°53' W 092°24'2 4.4
2017-May-02 00:01N 29°53' W 092°26'3 4.0
2017-May-01 23:20N 29°54' W 092°29'33 3.8
2017-May-01 14:42N 29°56' W 093°07'1 3.9
2017-May-01 14:29N 29°56' W 093°08'3 3.5
2017-May-01 13:31N 29°58' W 093°11'2 3.6
2017-May-01 13:01N 29°59' W 093°13'1 2.8
2017-May-01 12:31N 30°00' W 093°14'2 3.3
2017-May-01 12:00N 30°02' W 093°15'2 3.5
2017-May-01 11:30N 30°03' W 093°16'1 1.7
2017-May-01 11:01N 30°04' W 093°16'1 1.8
2017-May-01 10:31N 30°05' W 093°17'1 2.3
2017-May-01 10:00N 30°05' W 093°18'1 2.3
2017-May-01 09:31N 30°06' W 093°19'2 3.5
2017-May-01 09:00N 30°07' W 093°20'3 5.2
2017-May-01 08:31N 30°10' W 093°19'3 5.1
2017-May-01 08:01N 30°12' W 093°17'2 3.1
2017-May-01 07:31N 30°13' W 093°16'1 1.1
2017-May-01 07:01N 30°14' W 093°16'1 1.1
2017-May-01 06:30N 30°14' W 093°15'0 0.1
2017-May-01 06:01N 30°14' W 093°15'0 0.0
2017-May-01 05:31N 30°14' W 093°15'0 0.0
2017-May-01 05:01N 30°14' W 093°15'0 0.0
2017-May-01 04:30N 30°14' W 093°15'0 0.0
2017-May-01 04:00N 30°14' W 093°15'0 0.0
2017-May-01 03:31N 30°14' W 093°15'0 0.0
2017-May-01 03:01N 30°14' W 093°15'0 0.0
2017-May-01 02:30N 30°14' W 093°15'0 0.0
2017-May-01 02:01N 30°14' W 093°15'0 0.0
2017-May-01 01:31N 30°14' W 093°15'0 0.0
2017-May-01 01:01N 30°14' W 093°15'0 0.0
2017-May-01 00:31N 30°14' W 093°15'0 0.0
2017-May-01 00:01N 30°14' W 093°15'0 0.0
2017-Apr-30 23:30N 30°14' W 093°15'0 0.0
2017-Apr-30 23:01N 30°14' W 093°15'0 0.0
2017-Apr-30 22:30N 30°14' W 093°15'0 0.0
2017-Apr-30 22:01N 30°14' W 093°15'0 0.0
2017-Apr-30 21:31N 30°14' W 093°15'0 0.0
2017-Apr-30 21:01N 30°14' W 093°15'0 0.0
2017-Apr-30 20:30N 30°14' W 093°15'0 0.0
2017-Apr-30 20:01N 30°14' W 093°15'0 0.0
2017-Apr-30 19:31N 30°14' W 093°15'0 0.0
2017-Apr-30 19:00N 30°14' W 093°15'0 0.0
2017-Apr-30 18:30N 30°14' W 093°15'0 0.0
2017-Apr-30 18:00N 30°14' W 093°15'0 0.0
2017-Apr-30 17:31N 30°14' W 093°15'0 0.0
2017-Apr-30 17:00N 30°14' W 093°15'0 0.0
2017-Apr-30 16:30N 30°14' W 093°15'0 0.0
2017-Apr-30 16:01N 30°14' W 093°15'0 0.0
2017-Apr-30 15:30N 30°14' W 093°15'0 0.0
2017-Apr-30 15:00N 30°14' W 093°15'0 0.0
2017-Apr-30 14:30N 30°14' W 093°15'0 0.0
2017-Apr-30 13:31N 30°14' W 093°15'0 0.0
2017-Apr-30 13:00N 30°14' W 093°15'1 1.0
2017-Apr-30 12:30N 30°14' W 093°16'0 0.2
2017-Apr-30 12:00N 30°14' W 093°16'0 0.0
2017-Apr-30 11:31N 30°14' W 093°16'0 0.0
2017-Apr-30 11:00N 30°14' W 093°16'0 0.0
2017-Apr-30 10:31N 30°14' W 093°16'0 0.0
2017-Apr-30 10:01N 30°14' W 093°16'0 0.0
2017-Apr-30 09:31N 30°14' W 093°16'0 0.0
2017-Apr-30 09:01N 30°14' W 093°16'0 0.0
2017-Apr-30 08:31N 30°14' W 093°16'0 0.0
2017-Apr-30 08:01N 30°14' W 093°16'0 0.0
2017-Apr-30 07:31N 30°14' W 093°16'0 0.0
2017-Apr-30 07:01N 30°14' W 093°16'0 0.0
2017-Apr-30 06:31N 30°14' W 093°16'0 0.0
2017-Apr-30 06:01N 30°14' W 093°16'0 0.0
2017-Apr-30 05:31N 30°14' W 093°16'0 0.0
2017-Apr-30 05:01N 30°14' W 093°16'0 0.0
2017-Apr-30 04:31N 30°14' W 093°16'0 0.0
2017-Apr-30 04:01N 30°14' W 093°16'0 0.0
2017-Apr-30 03:31N 30°14' W 093°16'0 0.0
2017-Apr-30 03:01N 30°14' W 093°16'0 0.0
2017-Apr-30 02:31N 30°14' W 093°16'0 0.0
2017-Apr-30 02:00N 30°14' W 093°16'0 0.0
2017-Apr-30 01:30N 30°14' W 093°16'0 0.0
2017-Apr-30 01:00N 30°14' W 093°16'0 0.0
2017-Apr-30 00:31N 30°14' W 093°16'0 0.1
2017-Apr-30 00:00N 30°14' W 093°16'0 0.1
2017-Apr-29 23:30N 30°14' W 093°16'0 0.0
2017-Apr-29 23:01N 30°14' W 093°16'0 0.0
2017-Apr-29 22:31N 30°14' W 093°16'0 0.0
2017-Apr-29 22:00N 30°14' W 093°16'0 0.0
2017-Apr-29 21:30N 30°14' W 093°16'0 0.0
2017-Apr-29 21:01N 30°14' W 093°16'0 0.0
2017-Apr-29 20:31N 30°14' W 093°16'0 0.0
2017-Apr-29 20:01N 30°14' W 093°16'0 0.0
2017-Apr-29 19:31N 30°14' W 093°16'0 0.0
2017-Apr-29 19:00N 30°14' W 093°16'0 0.0
2017-Apr-29 18:31N 30°14' W 093°16'0 0.0
2017-Apr-29 18:01N 30°14' W 093°16'0 0.0
2017-Apr-29 17:31N 30°14' W 093°16'0 0.0
2017-Apr-29 17:01N 30°14' W 093°16'0 0.0
2017-Apr-29 16:31N 30°14' W 093°16'0 0.0
2017-Apr-29 16:01N 30°14' W 093°16'0 0.0
2017-Apr-29 15:31N 30°14' W 093°16'0 0.0
2017-Apr-29 15:01N 30°14' W 093°16'0 0.0
2017-Apr-29 14:01N 30°14' W 093°16'0 0.0
2017-Apr-29 13:31N 30°14' W 093°16'0 0.0
2017-Apr-29 13:01N 30°14' W 093°16'0 0.0
2017-Apr-29 12:30N 30°14' W 093°16'0 0.0
2017-Apr-29 12:01N 30°14' W 093°16'0 0.0
2017-Apr-29 11:31N 30°14' W 093°16'0 0.0
2017-Apr-29 11:01N 30°14' W 093°16'0 0.0
2017-Apr-29 10:30N 30°14' W 093°16'0 0.0
2017-Apr-29 10:01N 30°14' W 093°16'0 0.0
2017-Apr-29 09:31N 30°14' W 093°16'0 0.0
2017-Apr-29 09:01N 30°14' W 093°16'0 0.0
2017-Apr-29 08:31N 30°14' W 093°16'0 0.0
2017-Apr-29 08:01N 30°14' W 093°16'0 0.0
2017-Apr-29 07:30N 30°14' W 093°16'0 0.0
2017-Apr-29 07:01N 30°14' W 093°16'0 0.0
2017-Apr-29 06:31N 30°14' W 093°16'0 0.0
2017-Apr-29 06:01N 30°14' W 093°16'0 0.0
2017-Apr-29 05:31N 30°14' W 093°16'0 0.0
2017-Apr-29 05:01N 30°14' W 093°16'0 0.0
2017-Apr-29 04:31N 30°14' W 093°16'0 0.0
2017-Apr-29 04:01N 30°14' W 093°16'0 0.0
2017-Apr-29 03:30N 30°14' W 093°16'0 0.0
2017-Apr-29 03:00N 30°14' W 093°16'0 0.0
2017-Apr-29 02:30N 30°14' W 093°16'0 0.0
2017-Apr-29 02:01N 30°14' W 093°16'0 0.0
2017-Apr-29 01:31N 30°14' W 093°16'0 0.0
2017-Apr-29 01:01N 30°14' W 093°16'0 0.0
2017-Apr-29 00:30N 30°14' W 093°16'0 0.0
2017-Apr-29 00:01N 30°14' W 093°16'0 0.0
2017-Apr-28 23:30N 30°14' W 093°16'0 0.0
2017-Apr-28 23:01N 30°14' W 093°16'0 0.0
2017-Apr-28 22:31N 30°14' W 093°16'0 0.0
2017-Apr-28 22:01N 30°14' W 093°16'0 0.0
2017-Apr-28 21:30N 30°14' W 093°16'0 0.0
2017-Apr-28 21:01N 30°14' W 093°16'0 0.0
2017-Apr-28 20:31N 30°14' W 093°16'0 0.0
2017-Apr-28 20:01N 30°14' W 093°16'0 0.0
2017-Apr-28 19:31N 30°14' W 093°16'0 0.0
2017-Apr-28 19:01N 30°14' W 093°16'0 0.0
2017-Apr-28 18:30N 30°14' W 093°16'0 0.0
2017-Apr-28 18:01N 30°14' W 093°16'0 0.0
2017-Apr-28 17:30N 30°14' W 093°16'0 0.0
2017-Apr-28 17:00N 30°14' W 093°16'0 0.0
2017-Apr-28 16:31N 30°14' W 093°16'0 0.0
2017-Apr-28 16:00N 30°14' W 093°16'0 0.0
2017-Apr-28 15:30N 30°14' W 093°16'0 0.0
2017-Apr-28 15:01N 30°14' W 093°16'0 0.1
2017-Apr-28 14:01N 30°14' W 093°16'0 0.9
2017-Apr-28 13:31N 30°14' W 093°15'0 0.0
2017-Apr-28 13:01N 30°14' W 093°15'0 0.0
2017-Apr-28 12:30N 30°14' W 093°15'0 0.0
2017-Apr-28 12:01N 30°14' W 093°15'0 0.0
2017-Apr-28 11:31N 30°14' W 093°15'0 0.0
2017-Apr-28 11:00N 30°14' W 093°15'0 0.0
2017-Apr-28 10:31N 30°14' W 093°15'0 0.0
2017-Apr-28 10:00N 30°14' W 093°15'0 0.0
2017-Apr-28 09:31N 30°14' W 093°15'0 0.0
2017-Apr-28 09:01N 30°14' W 093°15'0 0.0
2017-Apr-28 08:30N 30°14' W 093°15'0 0.0
2017-Apr-28 08:01N 30°14' W 093°15'0 0.0
2017-Apr-28 07:30N 30°14' W 093°15'0 0.0
2017-Apr-28 06:59N 30°14' W 093°15'0 0.0
2017-Apr-28 06:30N 30°14' W 093°15'0 0.0
2017-Apr-28 06:01N 30°14' W 093°15'0 0.0
2017-Apr-28 05:31N 30°14' W 093°15'0 0.0
2017-Apr-28 05:00N 30°14' W 093°15'0 0.0
2017-Apr-28 04:31N 30°14' W 093°15'0 0.0
2017-Apr-28 04:00N 30°14' W 093°15'0 0.0
2017-Apr-28 03:30N 30°14' W 093°15'0 0.0
2017-Apr-28 03:00N 30°14' W 093°15'0 0.0
2017-Apr-28 02:30N 30°14' W 093°15'0 0.0
2017-Apr-28 02:00N 30°14' W 093°15'0 0.0
2017-Apr-28 01:31N 30°14' W 093°15'0 0.0
2017-Apr-28 01:00N 30°14' W 093°15'0 0.0
2017-Apr-28 00:31N 30°14' W 093°15'0 0.0
2017-Apr-28 00:00N 30°14' W 093°15'0 0.0
2017-Apr-27 23:30N 30°14' W 093°15'0 0.0
2017-Apr-27 23:01N 30°14' W 093°15'0 0.1
2017-Apr-27 22:30N 30°14' W 093°15'0 0.3
2017-Apr-27 22:01N 30°14' W 093°15'1 1.4
2017-Apr-27 21:31N 30°13' W 093°16'0 0.0
2017-Apr-27 21:00N 30°13' W 093°16'0 0.0
2017-Apr-27 20:30N 30°13' W 093°16'0 0.0
2017-Apr-27 20:00N 30°13' W 093°16'0 0.0
2017-Apr-27 19:30N 30°13' W 093°16'0 0.0
2017-Apr-27 19:01N 30°13' W 093°16'0 0.0
2017-Apr-27 18:31N 30°13' W 093°16'0 0.0
2017-Apr-27 18:01N 30°13' W 093°16'0 0.0
2017-Apr-27 17:30N 30°13' W 093°16'0 0.0
2017-Apr-27 17:00N 30°13' W 093°16'0 0.0
2017-Apr-27 16:31N 30°13' W 093°16'0 0.0
2017-Apr-27 16:01N 30°13' W 093°16'0 0.0
2017-Apr-27 15:30N 30°13' W 093°16'0 0.0
2017-Apr-27 15:01N 30°13' W 093°16'0 0.0
2017-Apr-27 14:01N 30°13' W 093°16'0 0.0
2017-Apr-27 13:31N 30°13' W 093°16'0 0.0
2017-Apr-27 13:00N 30°13' W 093°16'0 0.0
2017-Apr-27 12:30N 30°13' W 093°16'0 0.0
2017-Apr-27 12:01N 30°13' W 093°16'0 0.0
2017-Apr-27 11:29N 30°13' W 093°16'0 0.0
2017-Apr-27 11:00N 30°13' W 093°16'0 0.0
2017-Apr-27 10:30N 30°13' W 093°16'0 0.0
2017-Apr-27 10:00N 30°13' W 093°16'0 0.0
2017-Apr-27 09:31N 30°13' W 093°16'0 0.0
2017-Apr-27 09:01N 30°13' W 093°16'0 0.0
2017-Apr-27 08:31N 30°13' W 093°16'0 0.0
2017-Apr-27 08:01N 30°13' W 093°16'0 0.0
2017-Apr-27 07:30N 30°13' W 093°16'0 0.0
2017-Apr-27 07:01N 30°13' W 093°16'0 0.0
2017-Apr-27 06:30N 30°13' W 093°16'0 0.0
2017-Apr-27 06:01N 30°13' W 093°16'0 0.0
2017-Apr-27 05:31N 30°13' W 093°16'0 0.0
2017-Apr-27 05:01N 30°13' W 093°16'0 0.0
2017-Apr-27 04:31N 30°13' W 093°16'0 0.0
2017-Apr-27 04:01N 30°13' W 093°16'0 0.0
2017-Apr-27 03:31N 30°13' W 093°16'0 0.0
2017-Apr-27 03:01N 30°13' W 093°16'0 0.0
2017-Apr-27 02:31N 30°13' W 093°16'0 0.0
2017-Apr-27 02:00N 30°13' W 093°16'0 0.0
2017-Apr-27 01:30N 30°13' W 093°16'0 0.0
2017-Apr-27 01:01N 30°13' W 093°16'0 0.0
2017-Apr-27 00:30N 30°13' W 093°16'0 0.0
2017-Apr-27 00:00N 30°13' W 093°16'0 0.5
2017-Apr-26 23:30N 30°13' W 093°16'1 1.3
2017-Apr-26 23:01N 30°12' W 093°16'3 5.7
2017-Apr-26 22:31N 30°11' W 093°19'3 5.5
2017-Apr-26 22:01N 30°08' W 093°20'3 5.5
2017-Apr-26 21:30N 30°05' W 093°20'2 4.0
2017-Apr-26 21:01N 30°04' W 093°21'2 3.8
2017-Apr-26 20:30N 30°04' W 093°23'2 4.5
2017-Apr-26 20:01N 30°04' W 093°26'2 4.7
2017-Apr-26 19:30N 30°04' W 093°29'1 2.4
2017-Apr-26 19:01N 30°04' W 093°30'0 0.3
2017-Apr-26 18:31N 30°04' W 093°30'0 0.0
2017-Apr-26 18:01N 30°04' W 093°30'0 0.0
2017-Apr-26 17:30N 30°04' W 093°30'0 0.0
2017-Apr-26 17:01N 30°04' W 093°30'0 0.0
2017-Apr-26 16:31N 30°04' W 093°30'0 0.0
2017-Apr-26 16:01N 30°04' W 093°30'0 0.3
2017-Apr-26 15:31N 30°04' W 093°30'1 2.8
2017-Apr-26 15:00N 30°04' W 093°28'2 4.7
2017-Apr-26 14:31N 30°04' W 093°26'4 4.2
2017-Apr-26 13:31N 30°04' W 093°21'1 1.1
2017-Apr-26 13:01N 30°04' W 093°21'0 0.4
2017-Apr-26 12:31N 30°05' W 093°20'2 3.2
2017-Apr-26 12:01N 30°06' W 093°20'2 3.1
2017-Apr-26 11:31N 30°08' W 093°20'1 1.3
2017-Apr-26 11:01N 30°08' W 093°20'0 0.1
2017-Apr-26 10:30N 30°08' W 093°19'0 0.1
2017-Apr-26 10:00N 30°08' W 093°19'0 0.4
2017-Apr-26 09:31N 30°08' W 093°19'0 0.2
2017-Apr-26 09:01N 30°08' W 093°19'0 0.0
2017-Apr-26 08:31N 30°08' W 093°19'0 0.0
2017-Apr-26 08:00N 30°08' W 093°19'0 0.0
2017-Apr-26 07:30N 30°08' W 093°19'0 0.0
2017-Apr-26 07:01N 30°08' W 093°19'0 0.0
2017-Apr-26 06:31N 30°08' W 093°19'0 0.0
2017-Apr-26 06:00N 30°08' W 093°19'0 0.0
2017-Apr-26 05:30N 30°08' W 093°19'0 0.0
2017-Apr-26 05:00N 30°08' W 093°19'0 0.0
2017-Apr-26 04:31N 30°08' W 093°19'0 0.0
2017-Apr-26 04:00N 30°08' W 093°19'0 0.0
2017-Apr-26 03:30N 30°08' W 093°19'0 0.0
2017-Apr-26 03:01N 30°08' W 093°19'0 0.0
2017-Apr-26 02:30N 30°08' W 093°19'0 0.0
2017-Apr-26 02:01N 30°08' W 093°19'0 0.0
2017-Apr-26 01:31N 30°08' W 093°19'0 0.0
2017-Apr-26 01:01N 30°08' W 093°19'0 0.0
2017-Apr-26 00:30N 30°08' W 093°19'0 0.0
2017-Apr-26 00:00N 30°08' W 093°19'0 0.0
2017-Apr-25 23:31N 30°08' W 093°19'0 0.0
2017-Apr-25 23:01N 30°08' W 093°19'0 0.0
2017-Apr-25 22:31N 30°08' W 093°19'0 0.0
2017-Apr-25 22:00N 30°08' W 093°19'0 0.0
2017-Apr-25 21:30N 30°08' W 093°19'0 0.0
2017-Apr-25 21:00N 30°08' W 093°19'0 0.0
2017-Apr-25 20:31N 30°08' W 093°19'0 0.0
2017-Apr-25 20:01N 30°08' W 093°19'0 0.0
2017-Apr-25 19:31N 30°08' W 093°19'0 0.1
2017-Apr-25 19:00N 30°08' W 093°19'0 0.8
2017-Apr-25 18:30N 30°08' W 093°20'1 1.8
2017-Apr-25 18:00N 30°09' W 093°20'3 5.3
2017-Apr-25 17:30N 30°11' W 093°18'3 5.5
2017-Apr-25 17:01N 30°13' W 093°16'1 1.5
2017-Apr-25 16:30N 30°13' W 093°16'0 0.1
2017-Apr-25 16:01N 30°13' W 093°16'0 0.0
2017-Apr-25 15:30N 30°13' W 093°16'0 0.5
2017-Apr-25 15:01N 30°13' W 093°16'5 4.8
2017-Apr-25 14:01N 30°09' W 093°20'3 5.8
2017-Apr-25 13:31N 30°07' W 093°20'2 4.7
2017-Apr-25 13:01N 30°04' W 093°21'1 2.8
2017-Apr-25 12:30N 30°04' W 093°22'0 0.0
2017-Apr-25 12:00N 30°04' W 093°22'1 2.6
2017-Apr-25 11:30N 30°04' W 093°24'3 5.2
2017-Apr-25 11:01N 30°04' W 093°27'2 4.6
2017-Apr-25 10:31N 30°04' W 093°29'2 4.8
2017-Apr-25 10:01N 30°04' W 093°32'2 4.6
2017-Apr-25 09:31N 30°04' W 093°35'3 5.7
2017-Apr-25 09:00N 30°04' W 093°38'3 6.0
2017-Apr-25 08:31N 30°04' W 093°41'  
Track history (hours):
 
Tides and Currents Weather Stations Pressure Air Temp Water Temp Dewpoint Dewpoint Depression Visibility Wind Speed Wind Dir Waves Ship Positions

Integrity

Owner: Canal Barge Company, Inc., Belle Chasse, LA. More information available from US FCC via Universal Licensing System and Coast Guard Vessel Documentation Center.

Last reported at 2017-May-03 09:47 UTC. Time now 2017-May-29 18:54 UTC.
Position N 29°34' W 090°31'.
Warning: this ship's position is 26 days out of date.

Length 19 m; draft 2.8 m.

Type: Towing. MMSI: 367456830.

Date/timePositionNaut miles runAvg speedWind from/ knotsBaromVisibWave heightAir tempDewpointWater temp
2017-May-03 09:47N 29°34' W 090°31'2 5.0
2017-May-03 09:25N 29°34' W 090°33'2 4.8
2017-May-03 08:59N 29°35' W 090°35'2 4.3
2017-May-03 08:30N 29°35' W 090°38'2 4.2
2017-May-03 08:01N 29°36' W 090°40'2 3.8
2017-May-03 07:31N 29°37' W 090°42'1 2.6
2017-May-03 07:00N 29°36' W 090°43'2 3.2
2017-May-03 06:31N 29°34' W 090°43'2 3.8
2017-May-03 06:00N 29°33' W 090°45'0 0.5
2017-May-03 05:31N 29°33' W 090°45'0 0.2
2017-May-03 05:01N 29°33' W 090°45'1 1.7
2017-May-03 04:30N 29°32' W 090°46'2 3.3
2017-May-03 04:00N 29°32' W 090°48'2 4.1
2017-May-03 03:31N 29°32' W 090°50'2 3.9
2017-May-03 03:01N 29°32' W 090°52'2 3.6
2017-May-03 02:24N 29°33' W 090°54'2 3.7
2017-May-03 01:59N 29°34' W 090°56'49 3.2
2017-May-02 10:50N 29°49' W 091°50'1 3.8
2017-May-02 10:29N 29°50' W 091°50'2 4.5
2017-May-02 10:00N 29°51' W 091°53'2 4.9
2017-May-02 09:30N 29°51' W 091°56'2 4.6
2017-May-02 09:00N 29°50' W 091°58'2 4.4
2017-May-02 08:31N 29°50' W 092°01'2 4.5
2017-May-02 08:01N 29°49' W 092°03'2 4.1
2017-May-02 07:30N 29°48' W 092°05'2 3.9
2017-May-02 07:01N 29°47' W 092°07'2 4.0
2017-May-02 06:30N 29°47' W 092°10'2 4.0
2017-May-02 06:01N 29°47' W 092°12'1 1.1
2017-May-02 05:30N 29°47' W 092°13'1 2.0
2017-May-02 05:00N 29°48' W 092°14'0 0.3
2017-May-02 04:30N 29°48' W 092°14'0 0.0
2017-May-02 04:00N 29°48' W 092°14'0 0.0
2017-May-02 03:30N 29°48' W 092°14'0 0.9
2017-May-02 03:00N 29°48' W 092°14'1 1.9
2017-May-02 02:31N 29°48' W 092°15'2 3.7
2017-May-02 02:01N 29°49' W 092°17'2 4.2
2017-May-02 01:30N 29°50' W 092°19'2 4.7
2017-May-02 01:01N 29°51' W 092°22'2 5.0
2017-May-02 00:31N 29°53' W 092°24'2 4.4
2017-May-02 00:01N 29°53' W 092°26'3 4.0
2017-May-01 23:20N 29°54' W 092°29'33 3.8
2017-May-01 14:42N 29°56' W 093°07'1 3.9
2017-May-01 14:29N 29°56' W 093°08'3 3.5
2017-May-01 13:31N 29°58' W 093°11'2 3.6
2017-May-01 13:01N 29°59' W 093°13'1 2.8
2017-May-01 12:31N 30°00' W 093°14'2 3.3
2017-May-01 12:00N 30°02' W 093°15'2 3.5
2017-May-01 11:30N 30°03' W 093°16'1 1.7
2017-May-01 11:01N 30°04' W 093°16'1 1.8
2017-May-01 10:31N 30°05' W 093°17'1 2.3
2017-May-01 10:00N 30°05' W 093°18'1 2.3
2017-May-01 09:31N 30°06' W 093°19'2 3.5
2017-May-01 09:00N 30°07' W 093°20'3 5.2
2017-May-01 08:31N 30°10' W 093°19'3 5.1
2017-May-01 08:01N 30°12' W 093°17'2 3.1
2017-May-01 07:31N 30°13' W 093°16'1 1.1
2017-May-01 07:01N 30°14' W 093°16'1 1.1
2017-May-01 06:30N 30°14' W 093°15'0 0.1
2017-May-01 06:01N 30°14' W 093°15'0 0.0
2017-May-01 05:31N 30°14' W 093°15'0 0.0
2017-May-01 05:01N 30°14' W 093°15'0 0.0
2017-May-01 04:30N 30°14' W 093°15'0 0.0
2017-May-01 04:00N 30°14' W 093°15'0 0.0
2017-May-01 03:31N 30°14' W 093°15'0 0.0
2017-May-01 03:01N 30°14' W 093°15'0 0.0
2017-May-01 02:30N 30°14' W 093°15'0 0.0
2017-May-01 02:01N 30°14' W 093°15'0 0.0
2017-May-01 01:31N 30°14' W 093°15'0 0.0
2017-May-01 01:01N 30°14' W 093°15'0 0.0
2017-May-01 00:31N 30°14' W 093°15'0 0.0
2017-May-01 00:01N 30°14' W 093°15'0 0.0
2017-Apr-30 23:30N 30°14' W 093°15'0 0.0
2017-Apr-30 23:01N 30°14' W 093°15'0 0.0
2017-Apr-30 22:30N 30°14' W 093°15'0 0.0
2017-Apr-30 22:01N 30°14' W 093°15'0 0.0
2017-Apr-30 21:31N 30°14' W 093°15'0 0.0
2017-Apr-30 21:01N 30°14' W 093°15'0 0.0
2017-Apr-30 20:30N 30°14' W 093°15'0 0.0
2017-Apr-30 20:01N 30°14' W 093°15'0 0.0
2017-Apr-30 19:31N 30°14' W 093°15'0 0.0
2017-Apr-30 19:00N 30°14' W 093°15'0 0.0
2017-Apr-30 18:30N 30°14' W 093°15'0 0.0
2017-Apr-30 18:00N 30°14' W 093°15'0 0.0
2017-Apr-30 17:31N 30°14' W 093°15'0 0.0
2017-Apr-30 17:00N 30°14' W 093°15'0 0.0
2017-Apr-30 16:30N 30°14' W 093°15'0 0.0
2017-Apr-30 16:01N 30°14' W 093°15'0 0.0
2017-Apr-30 15:30N 30°14' W 093°15'0 0.0
2017-Apr-30 15:00N 30°14' W 093°15'0 0.0
2017-Apr-30 14:30N 30°14' W 093°15'0 0.0
2017-Apr-30 13:31N 30°14' W 093°15'0 0.0
2017-Apr-30 13:00N 30°14' W 093°15'1 1.0
2017-Apr-30 12:30N 30°14' W 093°16'0 0.2
2017-Apr-30 12:00N 30°14' W 093°16'0 0.0
2017-Apr-30 11:31N 30°14' W 093°16'0 0.0
2017-Apr-30 11:00N 30°14' W 093°16'0 0.0
2017-Apr-30 10:31N 30°14' W 093°16'0 0.0
2017-Apr-30 10:01N 30°14' W 093°16'0 0.0
2017-Apr-30 09:31N 30°14' W 093°16'0 0.0
2017-Apr-30 09:01N 30°14' W 093°16'0 0.0
2017-Apr-30 08:31N 30°14' W 093°16'0 0.0
2017-Apr-30 08:01N 30°14' W 093°16'0 0.0
2017-Apr-30 07:31N 30°14' W 093°16'0 0.0
2017-Apr-30 07:01N 30°14' W 093°16'0 0.0
2017-Apr-30 06:31N 30°14' W 093°16'0 0.0
2017-Apr-30 06:01N 30°14' W 093°16'0 0.0
2017-Apr-30 05:31N 30°14' W 093°16'0 0.0
2017-Apr-30 05:01N 30°14' W 093°16'0 0.0
2017-Apr-30 04:31N 30°14' W 093°16'0 0.0
2017-Apr-30 04:01N 30°14' W 093°16'0 0.0
2017-Apr-30 03:31N 30°14' W 093°16'0 0.0
2017-Apr-30 03:01N 30°14' W 093°16'0 0.0
2017-Apr-30 02:31N 30°14' W 093°16'0 0.0
2017-Apr-30 02:00N 30°14' W 093°16'0 0.0
2017-Apr-30 01:30N 30°14' W 093°16'0 0.0
2017-Apr-30 01:00N 30°14' W 093°16'0 0.0
2017-Apr-30 00:31N 30°14' W 093°16'0 0.1
2017-Apr-30 00:00N 30°14' W 093°16'0 0.1
2017-Apr-29 23:30N 30°14' W 093°16'0 0.0
2017-Apr-29 23:01N 30°14' W 093°16'0 0.0
2017-Apr-29 22:31N 30°14' W 093°16'0 0.0
2017-Apr-29 22:00N 30°14' W 093°16'0 0.0
2017-Apr-29 21:30N 30°14' W 093°16'0 0.0
2017-Apr-29 21:01N 30°14' W 093°16'0 0.0
2017-Apr-29 20:31N 30°14' W 093°16'0 0.0
2017-Apr-29 20:01N 30°14' W 093°16'0 0.0
2017-Apr-29 19:31N 30°14' W 093°16'0 0.0
2017-Apr-29 19:00N 30°14' W 093°16'0 0.0
2017-Apr-29 18:31N 30°14' W 093°16'0 0.0
2017-Apr-29 18:01N 30°14' W 093°16'0 0.0
2017-Apr-29 17:31N 30°14' W 093°16'0 0.0
2017-Apr-29 17:01N 30°14' W 093°16'0 0.0
2017-Apr-29 16:31N 30°14' W 093°16'0 0.0
2017-Apr-29 16:01N 30°14' W 093°16'0 0.0
2017-Apr-29 15:31N 30°14' W 093°16'0 0.0
2017-Apr-29 15:01N 30°14' W 093°16'0 0.0
2017-Apr-29 14:01N 30°14' W 093°16'0 0.0
2017-Apr-29 13:31N 30°14' W 093°16'0 0.0
2017-Apr-29 13:01N 30°14' W 093°16'0 0.0
2017-Apr-29 12:30N 30°14' W 093°16'0 0.0
2017-Apr-29 12:01N 30°14' W 093°16'0 0.0
2017-Apr-29 11:31N 30°14' W 093°16'0 0.0
2017-Apr-29 11:01N 30°14' W 093°16'0 0.0
2017-Apr-29 10:30N 30°14' W 093°16'0 0.0
2017-Apr-29 10:01N 30°14' W 093°16'0 0.0
2017-Apr-29 09:31N 30°14' W 093°16'0 0.0
2017-Apr-29 09:01N 30°14' W 093°16'0 0.0
2017-Apr-29 08:31N 30°14' W 093°16'0 0.0
2017-Apr-29 08:01N 30°14' W 093°16'0 0.0
2017-Apr-29 07:30N 30°14' W 093°16'0 0.0
2017-Apr-29 07:01N 30°14' W 093°16'0 0.0
2017-Apr-29 06:31N 30°14' W 093°16'0 0.0
2017-Apr-29 06:01N 30°14' W 093°16'0 0.0
2017-Apr-29 05:31N 30°14' W 093°16'0 0.0
2017-Apr-29 05:01N 30°14' W 093°16'0 0.0
2017-Apr-29 04:31N 30°14' W 093°16'0 0.0
2017-Apr-29 04:01N 30°14' W 093°16'0 0.0
2017-Apr-29 03:30N 30°14' W 093°16'0 0.0
2017-Apr-29 03:00N 30°14' W 093°16'0 0.0
2017-Apr-29 02:30N 30°14' W 093°16'0 0.0
2017-Apr-29 02:01N 30°14' W 093°16'0 0.0
2017-Apr-29 01:31N 30°14' W 093°16'0 0.0
2017-Apr-29 01:01N 30°14' W 093°16'0 0.0
2017-Apr-29 00:30N 30°14' W 093°16'0 0.0
2017-Apr-29 00:01N 30°14' W 093°16'0 0.0
2017-Apr-28 23:30N 30°14' W 093°16'0 0.0
2017-Apr-28 23:01N 30°14' W 093°16'0 0.0
2017-Apr-28 22:31N 30°14' W 093°16'0 0.0
2017-Apr-28 22:01N 30°14' W 093°16'0 0.0
2017-Apr-28 21:30N 30°14' W 093°16'0 0.0
2017-Apr-28 21:01N 30°14' W 093°16'0 0.0
2017-Apr-28 20:31N 30°14' W 093°16'0 0.0
2017-Apr-28 20:01N 30°14' W 093°16'0 0.0
2017-Apr-28 19:31N 30°14' W 093°16'0 0.0
2017-Apr-28 19:01N 30°14' W 093°16'0 0.0
2017-Apr-28 18:30N 30°14' W 093°16'0 0.0
2017-Apr-28 18:01N 30°14' W 093°16'0 0.0
2017-Apr-28 17:30N 30°14' W 093°16'0 0.0
2017-Apr-28 17:00N 30°14' W 093°16'0 0.0
2017-Apr-28 16:31N 30°14' W 093°16'0 0.0
2017-Apr-28 16:00N 30°14' W 093°16'0 0.0
2017-Apr-28 15:30N 30°14' W 093°16'0 0.0
2017-Apr-28 15:01N 30°14' W 093°16'0 0.1
2017-Apr-28 14:01N 30°14' W 093°16'0 0.9
2017-Apr-28 13:31N 30°14' W 093°15'0 0.0
2017-Apr-28 13:01N 30°14' W 093°15'0 0.0
2017-Apr-28 12:30N 30°14' W 093°15'0 0.0
2017-Apr-28 12:01N 30°14' W 093°15'0 0.0
2017-Apr-28 11:31N 30°14' W 093°15'0 0.0
2017-Apr-28 11:00N 30°14' W 093°15'0 0.0
2017-Apr-28 10:31N 30°14' W 093°15'0 0.0
2017-Apr-28 10:00N 30°14' W 093°15'0 0.0
2017-Apr-28 09:31N 30°14' W 093°15'0 0.0
2017-Apr-28 09:01N 30°14' W 093°15'0 0.0
2017-Apr-28 08:30N 30°14' W 093°15'0 0.0
2017-Apr-28 08:01N 30°14' W 093°15'0 0.0
2017-Apr-28 07:30N 30°14' W 093°15'0 0.0
2017-Apr-28 06:59N 30°14' W 093°15'0 0.0
2017-Apr-28 06:30N 30°14' W 093°15'0 0.0
2017-Apr-28 06:01N 30°14' W 093°15'0 0.0
2017-Apr-28 05:31N 30°14' W 093°15'0 0.0
2017-Apr-28 05:00N 30°14' W 093°15'0 0.0
2017-Apr-28 04:31N 30°14' W 093°15'0 0.0
2017-Apr-28 04:00N 30°14' W 093°15'0 0.0
2017-Apr-28 03:30N 30°14' W 093°15'0 0.0
2017-Apr-28 03:00N 30°14' W 093°15'0 0.0
2017-Apr-28 02:30N 30°14' W 093°15'0 0.0
2017-Apr-28 02:00N 30°14' W 093°15'0 0.0
2017-Apr-28 01:31N 30°14' W 093°15'0 0.0
2017-Apr-28 01:00N 30°14' W 093°15'0 0.0
2017-Apr-28 00:31N 30°14' W 093°15'0 0.0
2017-Apr-28 00:00N 30°14' W 093°15'0 0.0
2017-Apr-27 23:30N 30°14' W 093°15'0 0.0
2017-Apr-27 23:01N 30°14' W 093°15'0 0.1
2017-Apr-27 22:30N 30°14' W 093°15'0 0.3
2017-Apr-27 22:01N 30°14' W 093°15'1 1.4
2017-Apr-27 21:31N 30°13' W 093°16'0 0.0
2017-Apr-27 21:00N 30°13' W 093°16'0 0.0
2017-Apr-27 20:30N 30°13' W 093°16'0 0.0
2017-Apr-27 20:00N 30°13' W 093°16'0 0.0
2017-Apr-27 19:30N 30°13' W 093°16'0 0.0
2017-Apr-27 19:01N 30°13' W 093°16'0 0.0
2017-Apr-27 18:31N 30°13' W 093°16'0 0.0
2017-Apr-27 18:01N 30°13' W 093°16'0 0.0
2017-Apr-27 17:30N 30°13' W 093°16'0 0.0
2017-Apr-27 17:00N 30°13' W 093°16'0 0.0
2017-Apr-27 16:31N 30°13' W 093°16'0 0.0
2017-Apr-27 16:01N 30°13' W 093°16'0 0.0
2017-Apr-27 15:30N 30°13' W 093°16'0 0.0
2017-Apr-27 15:01N 30°13' W 093°16'0 0.0
2017-Apr-27 14:01N 30°13' W 093°16'0 0.0
2017-Apr-27 13:31N 30°13' W 093°16'0 0.0
2017-Apr-27 13:00N 30°13' W 093°16'0 0.0
2017-Apr-27 12:30N 30°13' W 093°16'0 0.0
2017-Apr-27 12:01N 30°13' W 093°16'0 0.0
2017-Apr-27 11:29N 30°13' W 093°16'0 0.0
2017-Apr-27 11:00N 30°13' W 093°16'0 0.0
2017-Apr-27 10:30N 30°13' W 093°16'0 0.0
2017-Apr-27 10:00N 30°13' W 093°16'0 0.0
2017-Apr-27 09:31N 30°13' W 093°16'0 0.0
2017-Apr-27 09:01N 30°13' W 093°16'0 0.0
2017-Apr-27 08:31N 30°13' W 093°16'0 0.0
2017-Apr-27 08:01N 30°13' W 093°16'0 0.0
2017-Apr-27 07:30N 30°13' W 093°16'0 0.0
2017-Apr-27 07:01N 30°13' W 093°16'0 0.0
2017-Apr-27 06:30N 30°13' W 093°16'0 0.0
2017-Apr-27 06:01N 30°13' W 093°16'0 0.0
2017-Apr-27 05:31N 30°13' W 093°16'0 0.0
2017-Apr-27 05:01N 30°13' W 093°16'0 0.0
2017-Apr-27 04:31N 30°13' W 093°16'0 0.0
2017-Apr-27 04:01N 30°13' W 093°16'0 0.0
2017-Apr-27 03:31N 30°13' W 093°16'0 0.0
2017-Apr-27 03:01N 30°13' W 093°16'0 0.0
2017-Apr-27 02:31N 30°13' W 093°16'0 0.0
2017-Apr-27 02:00N 30°13' W 093°16'0 0.0
2017-Apr-27 01:30N 30°13' W 093°16'0 0.0
2017-Apr-27 01:01N 30°13' W 093°16'0 0.0
2017-Apr-27 00:30N 30°13' W 093°16'0 0.0
2017-Apr-27 00:00N 30°13' W 093°16'0 0.5
2017-Apr-26 23:30N 30°13' W 093°16'1 1.3
2017-Apr-26 23:01N 30°12' W 093°16'3 5.7
2017-Apr-26 22:31N 30°11' W 093°19'3 5.5
2017-Apr-26 22:01N 30°08' W 093°20'3 5.5
2017-Apr-26 21:30N 30°05' W 093°20'2 4.0
2017-Apr-26 21:01N 30°04' W 093°21'2 3.8
2017-Apr-26 20:30N 30°04' W 093°23'2 4.5
2017-Apr-26 20:01N 30°04' W 093°26'2 4.7
2017-Apr-26 19:30N 30°04' W 093°29'1 2.4
2017-Apr-26 19:01N 30°04' W 093°30'0 0.3
2017-Apr-26 18:31N 30°04' W 093°30'0 0.0
2017-Apr-26 18:01N 30°04' W 093°30'0 0.0
2017-Apr-26 17:30N 30°04' W 093°30'0 0.0
2017-Apr-26 17:01N 30°04' W 093°30'0 0.0
2017-Apr-26 16:31N 30°04' W 093°30'0 0.0
2017-Apr-26 16:01N 30°04' W 093°30'0 0.3
2017-Apr-26 15:31N 30°04' W 093°30'1 2.8
2017-Apr-26 15:00N 30°04' W 093°28'2 4.7
2017-Apr-26 14:31N 30°04' W 093°26'4 4.2
2017-Apr-26 13:31N 30°04' W 093°21'1 1.1
2017-Apr-26 13:01N 30°04' W 093°21'0 0.4
2017-Apr-26 12:31N 30°05' W 093°20'2 3.2
2017-Apr-26 12:01N 30°06' W 093°20'2 3.1
2017-Apr-26 11:31N 30°08' W 093°20'1 1.3
2017-Apr-26 11:01N 30°08' W 093°20'0 0.1
2017-Apr-26 10:30N 30°08' W 093°19'0 0.1
2017-Apr-26 10:00N 30°08' W 093°19'0 0.4
2017-Apr-26 09:31N 30°08' W 093°19'0 0.2
2017-Apr-26 09:01N 30°08' W 093°19'0 0.0
2017-Apr-26 08:31N 30°08' W 093°19'0 0.0
2017-Apr-26 08:00N 30°08' W 093°19'0 0.0
2017-Apr-26 07:30N 30°08' W 093°19'0 0.0
2017-Apr-26 07:01N 30°08' W 093°19'0 0.0
2017-Apr-26 06:31N 30°08' W 093°19'0 0.0
2017-Apr-26 06:00N 30°08' W 093°19'0 0.0
2017-Apr-26 05:30N 30°08' W 093°19'0 0.0
2017-Apr-26 05:00N 30°08' W 093°19'0 0.0
2017-Apr-26 04:31N 30°08' W 093°19'0 0.0
2017-Apr-26 04:00N 30°08' W 093°19'0 0.0
2017-Apr-26 03:30N 30°08' W 093°19'0 0.0
2017-Apr-26 03:01N 30°08' W 093°19'0 0.0
2017-Apr-26 02:30N 30°08' W 093°19'0 0.0
2017-Apr-26 02:01N 30°08' W 093°19'0 0.0
2017-Apr-26 01:31N 30°08' W 093°19'0 0.0
2017-Apr-26 01:01N 30°08' W 093°19'0 0.0
2017-Apr-26 00:30N 30°08' W 093°19'0 0.0
2017-Apr-26 00:00N 30°08' W 093°19'0 0.0
2017-Apr-25 23:31N 30°08' W 093°19'0 0.0
2017-Apr-25 23:01N 30°08' W 093°19'0 0.0
2017-Apr-25 22:31N 30°08' W 093°19'0 0.0
2017-Apr-25 22:00N 30°08' W 093°19'0 0.0
2017-Apr-25 21:30N 30°08' W 093°19'0 0.0
2017-Apr-25 21:00N 30°08' W 093°19'0 0.0
2017-Apr-25 20:31N 30°08' W 093°19'0 0.0
2017-Apr-25 20:01N 30°08' W 093°19'0 0.0
2017-Apr-25 19:31N 30°08' W 093°19'0 0.1
2017-Apr-25 19:00N 30°08' W 093°19'0 0.8
2017-Apr-25 18:30N 30°08' W 093°20'1 1.8
2017-Apr-25 18:00N 30°09' W 093°20'3 5.3
2017-Apr-25 17:30N 30°11' W 093°18'3 5.5
2017-Apr-25 17:01N 30°13' W 093°16'1 1.5
2017-Apr-25 16:30N 30°13' W 093°16'0 0.1
2017-Apr-25 16:01N 30°13' W 093°16'0 0.0
2017-Apr-25 15:30N 30°13' W 093°16'0 0.5
2017-Apr-25 15:01N 30°13' W 093°16'5 4.8
2017-Apr-25 14:01N 30°09' W 093°20'3 5.8
2017-Apr-25 13:31N 30°07' W 093°20'2 4.7
2017-Apr-25 13:01N 30°04' W 093°21'1 2.8
2017-Apr-25 12:30N 30°04' W 093°22'0 0.0
2017-Apr-25 12:00N 30°04' W 093°22'1 2.6
2017-Apr-25 11:30N 30°04' W 093°24'3 5.2
2017-Apr-25 11:01N 30°04' W 093°27'2 4.6
2017-Apr-25 10:31N 30°04' W 093°29'2 4.8
2017-Apr-25 10:01N 30°04' W 093°32'2 4.6
2017-Apr-25 09:31N 30°04' W 093°35'3 5.7
2017-Apr-25 09:00N 30°04' W 093°38'3 6.0
2017-Apr-25 08:31N 30°04' W 093°41'  

Dump ship's entire track history